Skip Navigation Links Skip Navigation Links

Current Weather

Chicago O'Hare Intl, Chicago

For information only: do not use for flight planning or navigation.
Latest weather
Observation time Saturday, October 21, 2017 1:51 PM CDT
Local time Saturday, October 21, 2017 2:35 PM CDT
Flight conditions Visual Meteorological Conditions
Winds
Wind direction South (180°)
Wind speed 17 mph
Visibility 10 mi.
Sky condition
Ceiling unlimited
Cloud layer few clouds 8,000 ft.
Cloud layer few clouds 12,000 ft.
Cloud layer scattered clouds 20,000 ft.
Cloud layer scattered clouds 24,000 ft.
Temperature 76°F
Dewpoint 56°F
Altimeter 30.00 in.Hg
Derived measurements
Relative humidity 50%
Density altitude 1882 ft.
Sea-level pressure 29.99 in.Hg
Remarks
System requires maintenance.
Automated weather observing station with precipitation discriminator.
METAR KORD 211851Z 18015KT 10SM FEW080 FEW120 SCT200 SCT240 24/13 A3000 RMK AO2 SLP156 T02440133 $

Settings

Location code

InnerDrive.Weather 4.0.6144.1 Release CLR 4.0.30319.36366
Copyright ©2015 Inner Drive Technology. All rights reserved. Portions Copyright ©1986-2015 David Braverman.

Find weather

Site navigation


Skip Navigation Links

Place info

Page info

PayPal - The safer, easier way to pay online!

Return home.

Copyright ©2017 Inner Drive Technology. Purveyors of fine, hand-crafted computer software. Page printed 2017-10-21T19:35:36 UTC.